createdAt,value
2019-04-20T00:00:31.602Z,41.70
2019-04-20T00:01:32.670Z,41.40
2019-04-20T00:02:34.088Z,41.60
2019-04-20T00:03:39.886Z,41.50
2019-04-20T00:04:39.031Z,41.10
2019-04-20T00:05:41.293Z,41.10
2019-04-20T00:06:46.718Z,41.30
2019-04-20T00:07:45.923Z,41.40
2019-04-20T00:08:50.956Z,41.60
2019-04-20T00:10:00.450Z,41.70
2019-04-20T00:11:02.654Z,41.70
2019-04-20T00:12:06.267Z,42.00
2019-04-20T00:13:13.822Z,42.40
2019-04-20T00:14:09.013Z,41.90
2019-04-20T00:15:06.927Z,41.90
2019-04-20T00:16:08.360Z,42.00
2019-04-20T00:17:09.578Z,42.10
2019-04-20T00:18:12.190Z,42.40
2019-04-20T00:19:15.305Z,42.40
2019-04-20T00:20:23.578Z,42.50
2019-04-20T00:21:43.109Z,42.80
2019-04-20T00:22:59.788Z,42.80
2019-04-20T00:24:10.303Z,43.00
2019-04-20T00:25:12.651Z,42.80
2019-04-20T00:26:26.626Z,43.50
2019-04-20T00:27:37.087Z,42.90
2019-04-20T00:28:39.891Z,42.80
2019-04-20T00:29:43.702Z,43.10
2019-04-20T00:30:47.990Z,43.20
2019-04-20T00:31:45.847Z,43.20
2019-04-20T00:32:48.987Z,43.10
2019-04-20T00:33:47.953Z,43.60
2019-04-20T00:34:41.962Z,43.70
2019-04-20T00:35:42.162Z,43.40
2019-04-20T00:36:43.395Z,43.80
2019-04-20T00:37:44.585Z,43.60
2019-04-20T00:38:50.892Z,43.40
2019-04-20T00:39:48.844Z,43.30
2019-04-20T00:40:56.221Z,43.30
2019-04-20T00:42:00.037Z,43.10
2019-04-20T00:42:59.554Z,43.00
2019-04-20T00:44:06.162Z,43.10
2019-04-20T00:45:10.609Z,43.20
2019-04-20T00:46:09.192Z,43.60
2019-04-20T00:47:20.067Z,43.70
2019-04-20T00:48:25.038Z,43.70
2019-04-20T00:49:30.479Z,44.20
2019-04-20T00:50:35.831Z,44.10
2019-04-20T00:51:37.832Z,44.40
2019-04-20T00:52:35.647Z,44.10
2019-04-20T00:53:34.743Z,44.20
2019-04-20T00:54:30.420Z,44.50
2019-04-20T00:55:31.856Z,44.50
2019-04-20T00:56:33.019Z,44.50
2019-04-20T00:57:45.092Z,44.50
2019-04-20T00:58:50.798Z,44.50
2019-04-20T00:59:59.132Z,44.40
2019-04-20T01:01:07.313Z,44.40
2019-04-20T01:02:06.433Z,44.40
2019-04-20T01:03:01.014Z,44.40
2019-04-20T01:04:10.643Z,44.40
2019-04-20T01:05:12.862Z,44.40
2019-04-20T01:06:18.819Z,44.40
2019-04-20T01:07:20.251Z,44.40
2019-04-20T01:08:15.393Z,44.40
2019-04-20T01:09:22.273Z,44.30
2019-04-20T01:10:23.717Z,44.40
2019-04-20T01:11:33.190Z,44.40
2019-04-20T01:12:30.340Z,44.60
2019-04-20T01:13:31.779Z,45.00
2019-04-20T01:14:40.555Z,45.00
2019-04-20T01:15:42.928Z,44.90
2019-04-20T01:16:47.294Z,45.00
2019-04-20T01:17:43.080Z,45.10
2019-04-20T01:18:47.188Z,45.00
2019-04-20T01:19:48.803Z,45.00
2019-04-20T01:20:51.166Z,45.10
2019-04-20T01:21:59.741Z,45.40
2019-04-20T01:23:01.973Z,45.30
2019-04-20T01:24:03.121Z,45.30
2019-04-20T01:25:09.763Z,45.30
2019-04-20T01:26:09.287Z,45.50
2019-04-20T01:27:23.702Z,45.40
2019-04-20T01:28:29.913Z,45.60
2019-04-20T01:29:21.570Z,45.70
2019-04-20T01:30:25.304Z,45.80
2019-04-20T01:31:30.140Z,46.00
2019-04-20T01:32:33.418Z,45.90
2019-04-20T01:33:38.410Z,46.00
2019-04-20T01:34:42.703Z,46.10
2019-04-20T01:35:52.103Z,46.10
2019-04-20T01:36:52.030Z,46.00
2019-04-20T01:37:57.528Z,46.20
2019-04-20T01:38:56.770Z,46.20
2019-04-20T01:39:50.197Z,46.30
2019-04-20T01:40:46.488Z,46.50
2019-04-20T01:41:47.757Z,46.30
2019-04-20T01:42:48.978Z,46.50
2019-04-20T01:43:50.243Z,46.30
2019-04-20T01:44:53.594Z,46.50
2019-04-20T01:46:01.380Z,46.50
2019-04-20T01:47:01.507Z,47.10
2019-04-20T01:48:02.325Z,46.90
2019-04-20T01:49:09.146Z,47.10
2019-04-20T01:50:13.357Z,47.10
2019-04-20T01:51:17.600Z,47.30
2019-04-20T01:52:20.931Z,47.10
2019-04-20T01:53:34.290Z,47.40
2019-04-20T01:54:42.111Z,47.40
2019-04-20T01:55:45.664Z,47.40
2019-04-20T01:56:40.364Z,47.30
2019-04-20T01:57:56.193Z,47.20
2019-04-20T01:58:58.222Z,47.20
2019-04-20T01:59:59.692Z,47.30
2019-04-20T02:00:53.035Z,47.30
2019-04-20T02:02:15.170Z,47.30
2019-04-20T02:03:39.463Z,47.60
2019-04-20T02:04:46.039Z,47.80
2019-04-20T02:05:53.062Z,47.70
2019-04-20T02:06:53.456Z,47.70
2019-04-20T02:07:53.881Z,48.10
2019-04-20T02:09:00.319Z,48.00
2019-04-20T02:10:01.910Z,48.00
2019-04-20T02:11:02.655Z,48.00
2019-04-20T02:12:08.420Z,48.00
2019-04-20T02:13:06.670Z,48.10
2019-04-20T02:14:10.891Z,48.00
2019-04-20T02:15:20.768Z,48.20
2019-04-20T02:16:24.397Z,48.10
2019-04-20T02:17:27.921Z,48.30
2019-04-20T02:18:33.727Z,48.40
2019-04-20T02:19:38.848Z,48.60
2019-04-20T02:20:47.313Z,48.60
2019-04-20T02:21:48.857Z,48.70
2019-04-20T02:22:50.095Z,48.50
2019-04-20T02:23:44.037Z,48.50
2019-04-20T02:24:38.754Z,49.20
2019-04-20T02:25:39.956Z,48.80
2019-04-20T02:26:41.059Z,48.80
2019-04-20T02:27:48.872Z,48.40
2019-04-20T02:29:14.592Z,48.60
2019-04-20T02:30:18.651Z,48.50
2019-04-20T02:31:42.822Z,48.50
2019-04-20T02:33:42.823Z,48.40
2019-04-20T02:34:47.722Z,48.50
2019-04-20T02:37:14.006Z,48.80
2019-04-20T02:39:31.046Z,48.60
2019-04-20T02:40:21.159Z,48.70
2019-04-20T02:41:30.048Z,49.50
2019-04-20T02:42:22.640Z,48.70
2019-04-20T02:43:40.259Z,48.90
2019-04-20T02:44:34.004Z,49.00
2019-04-20T02:46:44.786Z,49.10
2019-04-20T02:47:43.698Z,49.10
2019-04-20T02:48:39.421Z,49.20
2019-04-20T02:49:51.856Z,49.30
2019-04-20T02:50:50.995Z,49.20
2019-04-20T02:52:02.986Z,49.10
2019-04-20T02:52:56.736Z,49.30
2019-04-20T02:54:11.105Z,49.30
2019-04-20T02:55:02.133Z,49.20
2019-04-20T02:56:04.477Z,49.40
2019-04-20T02:57:10.767Z,49.30
2019-04-20T02:59:43.199Z,49.30
2019-04-20T03:00:24.685Z,49.30
2019-04-20T03:01:23.627Z,49.30
2019-04-20T03:02:18.533Z,49.40
2019-04-20T03:03:17.029Z,49.30
2019-04-20T03:04:20.379Z,49.50
2019-04-20T03:05:28.127Z,49.40
2019-04-20T03:06:26.374Z,49.20
2019-04-20T03:07:32.965Z,49.20
2019-04-20T03:08:38.404Z,49.50
2019-04-20T03:09:46.983Z,49.50
2019-04-20T03:10:52.664Z,49.50
2019-04-20T03:11:59.421Z,49.40
2019-04-20T03:13:01.478Z,49.60
2019-04-20T03:13:57.822Z,49.80
2019-04-20T03:14:53.925Z,49.90
2019-04-20T03:16:09.098Z,50.00
2019-04-20T03:17:09.881Z,50.60
2019-04-20T03:18:09.102Z,49.90
2019-04-20T03:19:10.886Z,50.00
2019-04-20T03:20:18.836Z,49.90
2019-04-20T03:21:21.071Z,50.10
2019-04-20T03:22:23.575Z,50.20
2019-04-20T03:23:33.444Z,50.10
2019-04-20T03:24:31.048Z,50.40
2019-04-20T03:25:48.381Z,50.20
2019-04-20T03:26:57.032Z,50.50
2019-04-20T03:28:05.195Z,50.50
2019-04-20T03:29:03.931Z,50.40
2019-04-20T03:30:22.021Z,50.50
2019-04-20T03:32:49.829Z,50.60
2019-04-20T03:33:44.676Z,50.90
2019-04-20T03:34:55.497Z,51.20
2019-04-20T03:35:35.572Z,50.30
2019-04-20T03:36:43.269Z,51.00
2019-04-20T03:37:42.681Z,50.40
2019-04-20T03:38:38.587Z,50.40
2019-04-20T03:39:35.959Z,50.40
2019-04-20T03:40:37.497Z,50.20
2019-04-20T03:41:35.186Z,50.10
2019-04-20T03:42:30.876Z,50.30
2019-04-20T03:43:32.870Z,50.40
2019-04-20T03:44:35.836Z,50.40
2019-04-20T03:45:44.684Z,50.40
2019-04-20T03:46:47.921Z,50.50
2019-04-20T03:47:57.535Z,50.20
2019-04-20T03:49:02.796Z,50.30
2019-04-20T03:50:12.735Z,50.50
2019-04-20T03:51:14.881Z,50.50
2019-04-20T03:52:31.334Z,50.70
2019-04-20T03:53:34.374Z,50.80
2019-04-20T03:54:36.557Z,50.50
2019-04-20T03:55:44.498Z,50.40
2019-04-20T03:56:49.653Z,50.80
2019-04-20T03:57:57.158Z,50.90
2019-04-20T03:59:00.420Z,50.90
2019-04-20T04:00:05.135Z,50.90
2019-04-20T04:01:14.749Z,50.90
2019-04-20T04:03:34.963Z,51.80
2019-04-20T04:04:37.205Z,51.00
2019-04-20T04:05:36.928Z,50.90
2019-04-20T04:06:33.475Z,50.80
2019-04-20T04:07:32.360Z,50.80
2019-04-20T04:08:36.318Z,51.40
2019-04-20T04:09:39.730Z,51.20
2019-04-20T04:10:54.732Z,51.20
2019-04-20T04:11:56.081Z,51.30
2019-04-20T04:13:11.754Z,51.20
2019-04-20T04:14:13.597Z,51.80
2019-04-20T04:15:14.791Z,51.20
2019-04-20T04:16:19.838Z,51.30
2019-04-20T04:17:20.992Z,51.20
2019-04-20T04:18:29.843Z,51.20
2019-04-20T04:19:32.862Z,51.20
2019-04-20T04:20:38.724Z,51.30
2019-04-20T04:21:49.659Z,51.20
2019-04-20T04:22:50.246Z,51.10
2019-04-20T04:23:55.868Z,51.20
2019-04-20T04:24:57.022Z,51.90
2019-04-20T04:26:00.772Z,51.20
2019-04-20T04:26:58.382Z,50.90
2019-04-20T04:28:06.971Z,51.20
2019-04-20T04:29:13.576Z,51.10
2019-04-20T04:30:13.365Z,52.00
2019-04-20T04:31:21.436Z,51.20
2019-04-20T04:32:33.145Z,51.60
2019-04-20T04:34:23.897Z,51.70
2019-04-20T04:35:23.442Z,51.70
2019-04-20T04:36:25.996Z,51.50
2019-04-20T04:37:32.440Z,51.50
2019-04-20T04:38:46.025Z,51.40
2019-04-20T04:39:47.216Z,51.00
2019-04-20T04:40:51.404Z,51.40
2019-04-20T04:41:51.018Z,51.60
2019-04-20T04:42:52.562Z,51.70
2019-04-20T04:43:53.879Z,51.70
2019-04-20T04:44:46.799Z,51.80
2019-04-20T04:45:40.572Z,51.60
2019-04-20T04:46:50.453Z,51.70
2019-04-20T04:47:45.315Z,51.80
2019-04-20T04:48:49.478Z,51.70
2019-04-20T04:49:57.871Z,51.80
2019-04-20T04:50:59.081Z,51.80
2019-04-20T04:52:03.000Z,52.00
2019-04-20T04:53:07.342Z,51.70
2019-04-20T04:54:12.868Z,51.70
2019-04-20T04:55:18.909Z,51.70
2019-04-20T04:56:14.124Z,51.60
2019-04-20T04:57:11.657Z,51.70
2019-04-20T04:58:12.883Z,51.60
2019-04-20T04:59:14.925Z,51.80
2019-04-20T05:00:22.853Z,51.70
2019-04-20T05:01:25.295Z,51.70
2019-04-20T05:02:29.777Z,51.70
2019-04-20T05:03:49.230Z,51.90
2019-04-20T05:05:16.130Z,51.90
2019-04-20T05:06:14.780Z,52.00
2019-04-20T05:07:10.089Z,52.00
2019-04-20T05:08:10.237Z,52.20
2019-04-20T05:09:05.849Z,52.20
2019-04-20T05:10:09.714Z,52.10
2019-04-20T05:11:11.087Z,52.30
2019-04-20T05:12:17.463Z,52.10
2019-04-20T05:13:15.770Z,52.40
2019-04-20T05:14:23.538Z,52.60
2019-04-20T05:15:32.217Z,52.50
2019-04-20T05:16:40.938Z,53.20
2019-04-20T05:17:43.806Z,52.50
2019-04-20T05:18:55.281Z,52.40
2019-04-20T05:19:55.278Z,52.50
2019-04-20T05:20:59.678Z,52.40
2019-04-20T05:22:19.422Z,52.40
2019-04-20T05:23:08.566Z,52.40
2019-04-20T05:24:22.943Z,52.30
2019-04-20T05:25:52.291Z,52.10
2019-04-20T05:27:07.215Z,52.10
2019-04-20T05:28:18.079Z,51.80
2019-04-20T05:29:12.527Z,52.10
2019-04-20T05:30:09.842Z,52.10
2019-04-20T05:31:12.220Z,52.20
2019-04-20T05:32:19.694Z,52.50
2019-04-20T05:33:27.823Z,52.00
2019-04-20T05:34:49.997Z,51.50
2019-04-20T05:35:45.736Z,51.70
2019-04-20T05:36:46.227Z,51.70
2019-04-20T05:37:53.058Z,51.70
2019-04-20T05:38:54.620Z,51.70
2019-04-20T05:39:59.006Z,51.40
2019-04-20T05:40:59.523Z,51.00
2019-04-20T05:41:56.229Z,50.70
2019-04-20T05:43:15.504Z,50.50
2019-04-20T05:44:13.064Z,50.20
2019-04-20T05:45:22.376Z,50.00
2019-04-20T05:46:26.462Z,49.90
2019-04-20T05:47:29.092Z,49.80
2019-04-20T05:48:25.922Z,49.70
2019-04-20T05:49:34.897Z,49.60
2019-04-20T05:50:37.722Z,49.40
2019-04-20T05:51:39.520Z,49.60
2019-04-20T05:52:54.603Z,49.40
2019-04-20T05:53:44.346Z,49.50
2019-04-20T05:54:51.145Z,49.40
2019-04-20T05:55:49.283Z,49.20
2019-04-20T05:57:00.766Z,49.20
2019-04-20T05:58:01.964Z,48.90
2019-04-20T05:59:02.744Z,48.70
2019-04-20T06:00:12.672Z,49.00
2019-04-20T06:01:08.955Z,49.20
2019-04-20T06:02:09.745Z,49.50
2019-04-20T06:03:11.911Z,49.80
2019-04-20T06:04:18.576Z,49.70
2019-04-20T06:05:23.959Z,49.60
2019-04-20T06:06:25.981Z,49.80
2019-04-20T06:08:43.868Z,49.60
2019-04-20T06:09:34.103Z,49.70
2019-04-20T06:10:41.718Z,49.40
2019-04-20T06:11:44.176Z,49.50
2019-04-20T06:12:39.992Z,49.60
2019-04-20T06:13:42.401Z,49.70
2019-04-20T06:15:00.387Z,49.50
2019-04-20T06:16:07.407Z,49.50
2019-04-20T06:17:15.901Z,49.50
2019-04-20T06:18:35.462Z,49.30
2019-04-20T06:19:39.251Z,49.30
2019-04-20T06:21:08.309Z,49.20
2019-04-20T06:22:10.281Z,49.10
2019-04-20T06:22:54.644Z,49.00
2019-04-20T06:24:10.597Z,49.20
2019-04-20T06:26:28.132Z,49.20
2019-04-20T06:27:14.621Z,49.10
2019-04-20T06:28:19.662Z,48.70
2019-04-20T06:29:22.170Z,48.90
2019-04-20T06:30:23.919Z,48.60
2019-04-20T06:31:30.999Z,48.50
2019-04-20T06:33:21.619Z,48.60
2019-04-20T06:34:30.646Z,48.30
2019-04-20T06:35:45.497Z,48.30
2019-04-20T06:36:32.134Z,48.40
2019-04-20T06:37:38.979Z,48.40
2019-04-20T06:38:48.980Z,48.30
2019-04-20T06:39:40.384Z,47.80
2019-04-20T06:41:59.959Z,47.70
2019-04-20T06:42:53.690Z,47.80
2019-04-20T06:43:53.772Z,47.90
2019-04-20T06:44:50.777Z,47.60
2019-04-20T06:46:05.597Z,47.50
2019-04-20T06:47:04.089Z,47.20
2019-04-20T06:48:05.905Z,46.80
2019-04-20T06:49:10.695Z,46.80
2019-04-20T06:50:12.876Z,46.70
2019-04-20T06:51:22.376Z,46.60
2019-04-20T06:53:43.405Z,46.50
2019-04-20T06:54:55.176Z,46.80
2019-04-20T06:56:12.018Z,46.60
2019-04-20T06:57:12.987Z,46.30
2019-04-20T06:58:29.089Z,45.90
2019-04-20T06:59:20.015Z,46.00
2019-04-20T07:00:30.864Z,45.80
2019-04-20T07:01:24.942Z,45.60
2019-04-20T07:02:32.447Z,45.70
2019-04-20T07:03:46.413Z,45.40
2019-04-20T07:04:41.973Z,44.90
2019-04-20T07:05:33.145Z,45.00
2019-04-20T07:06:54.890Z,45.00
2019-04-20T07:07:44.661Z,45.00
2019-04-20T07:10:03.600Z,44.70
2019-04-20T07:11:02.232Z,44.30
2019-04-20T07:11:50.548Z,44.30
2019-04-20T07:12:49.596Z,44.40
2019-04-20T07:13:49.605Z,44.20
2019-04-20T07:14:54.448Z,44.80
2019-04-20T07:16:11.901Z,44.40
2019-04-20T07:17:34.983Z,43.70
2019-04-20T07:18:26.152Z,43.60
2019-04-20T07:19:28.915Z,43.40
2019-04-20T07:20:44.489Z,43.50
2019-04-20T07:22:15.250Z,43.40
2019-04-20T07:24:11.769Z,43.10
2019-04-20T07:25:06.465Z,44.10
2019-04-20T07:26:20.326Z,43.00
2019-04-20T07:27:13.623Z,43.00
2019-04-20T07:28:21.846Z,43.00
2019-04-20T07:29:31.887Z,42.60
2019-04-20T07:30:21.861Z,42.10
2019-04-20T07:31:24.652Z,42.00
2019-04-20T07:32:38.935Z,42.10
2019-04-20T07:33:32.295Z,41.80
2019-04-20T07:34:38.702Z,41.70
2019-04-20T07:35:40.428Z,41.40
2019-04-20T07:36:51.498Z,41.40
2019-04-20T07:38:08.346Z,41.50
2019-04-20T07:38:53.892Z,41.20
2019-04-20T07:40:02.667Z,41.10
2019-04-20T07:40:56.067Z,40.20
2019-04-20T07:42:08.227Z,40.60
2019-04-20T07:43:00.261Z,40.70
2019-04-20T07:44:10.661Z,40.70
2019-04-20T07:45:15.709Z,40.70
2019-04-20T07:46:24.515Z,40.60
2019-04-20T07:47:28.186Z,40.40
2019-04-20T07:48:29.509Z,40.10
2019-04-20T07:49:18.214Z,39.90
2019-04-20T07:50:21.757Z,39.50
2019-04-20T07:51:16.251Z,39.70
2019-04-20T07:52:12.269Z,39.70
2019-04-20T07:53:29.406Z,40.00
2019-04-20T07:54:50.691Z,39.80
2019-04-20T07:55:51.066Z,39.70
2019-04-20T07:56:42.563Z,39.50
2019-04-20T07:57:42.479Z,39.30
2019-04-20T07:58:35.759Z,39.20
2019-04-20T07:59:55.147Z,39.20
2019-04-20T08:01:04.212Z,39.10
2019-04-20T08:02:25.012Z,39.10
2019-04-20T08:03:29.359Z,38.80
2019-04-20T08:04:28.750Z,38.80
2019-04-20T08:05:33.572Z,38.90
2019-04-20T08:06:35.294Z,38.70
2019-04-20T08:07:39.120Z,38.70
2019-04-20T08:08:49.059Z,38.80
2019-04-20T08:09:42.335Z,39.00
2019-04-20T08:10:54.373Z,38.80
2019-04-20T08:12:03.257Z,39.10
2019-04-20T08:13:09.427Z,38.70
2019-04-20T08:14:16.300Z,38.90
2019-04-20T08:15:27.377Z,38.70
2019-04-20T08:16:20.675Z,39.30
2019-04-20T08:18:21.039Z,38.90
2019-04-20T08:19:23.135Z,38.80
2019-04-20T08:20:25.788Z,38.90
2019-04-20T08:21:35.181Z,38.80
2019-04-20T08:22:33.898Z,38.20
2019-04-20T08:23:40.443Z,38.30
2019-04-20T08:24:37.485Z,38.30
2019-04-20T08:25:31.642Z,37.50
2019-04-20T08:26:32.049Z,37.50
2019-04-20T08:27:46.759Z,37.90
2019-04-20T08:28:56.978Z,38.10
2019-04-20T08:30:09.096Z,37.70
2019-04-20T08:31:21.865Z,38.30
2019-04-20T08:32:38.733Z,38.50
2019-04-20T08:34:09.045Z,38.40
2019-04-20T08:35:02.252Z,37.90
2019-04-20T08:36:04.431Z,36.50
2019-04-20T08:37:00.911Z,36.20
2019-04-20T08:38:47.327Z,36.10
2019-04-20T08:39:19.978Z,35.20
2019-04-20T08:40:12.066Z,35.60
2019-04-20T08:41:14.223Z,35.30
2019-04-20T08:42:16.498Z,35.40
2019-04-20T08:43:37.931Z,35.40
2019-04-20T08:44:53.822Z,35.20
2019-04-20T08:45:36.142Z,35.80
2019-04-20T08:46:47.698Z,35.70
2019-04-20T08:47:44.843Z,35.90
2019-04-20T08:48:40.911Z,36.10
2019-04-20T08:50:13.724Z,35.20
2019-04-20T08:51:07.394Z,35.70
2019-04-20T08:52:41.287Z,36.50
2019-04-20T08:53:23.185Z,35.40
2019-04-20T08:54:16.769Z,35.40
2019-04-20T08:55:26.290Z,35.60
2019-04-20T08:56:19.737Z,35.80
2019-04-20T08:57:11.130Z,36.00
2019-04-20T08:58:13.651Z,36.00
2019-04-20T08:59:14.797Z,36.10
2019-04-20T09:00:19.176Z,35.80
2019-04-20T09:01:21.533Z,36.10
2019-04-20T09:02:23.894Z,36.00
2019-04-20T09:03:30.728Z,35.90
2019-04-20T09:04:38.800Z,35.90
2019-04-20T09:05:42.476Z,36.00
2019-04-20T09:06:49.096Z,35.70
2019-04-20T09:07:49.057Z,35.60
2019-04-20T09:08:50.856Z,35.70
2019-04-20T09:10:10.104Z,36.30
2019-04-20T09:11:05.860Z,36.40
2019-04-20T09:12:07.599Z,36.80
2019-04-20T09:13:05.428Z,36.40
2019-04-20T09:14:00.456Z,36.40
2019-04-20T09:15:16.859Z,36.00
2019-04-20T09:16:19.927Z,35.90
2019-04-20T09:17:32.391Z,35.90
2019-04-20T09:18:34.309Z,35.70
2019-04-20T09:19:39.947Z,35.70
2019-04-20T09:20:43.547Z,36.00
2019-04-20T09:21:46.157Z,36.20
2019-04-20T09:22:51.404Z,36.20
2019-04-20T09:24:13.380Z,35.80
2019-04-20T09:25:25.369Z,36.00
2019-04-20T09:26:10.102Z,35.80
2019-04-20T09:27:08.912Z,36.00
2019-04-20T09:28:11.638Z,35.80
2019-04-20T09:29:18.480Z,35.60
2019-04-20T09:30:25.788Z,35.60
2019-04-20T09:31:29.674Z,35.80
2019-04-20T09:32:43.979Z,35.50
2019-04-20T09:33:52.946Z,35.10
2019-04-20T09:35:01.055Z,35.60
2019-04-20T09:35:54.870Z,35.80
2019-04-20T09:37:12.909Z,35.40
2019-04-20T09:38:09.807Z,34.80
2019-04-20T09:39:11.431Z,35.20
2019-04-20T09:40:28.286Z,35.30
2019-04-20T09:41:34.911Z,35.20
2019-04-20T09:42:15.029Z,35.10
2019-04-20T09:43:33.060Z,35.20
2019-04-20T09:44:39.821Z,35.60
2019-04-20T09:45:46.212Z,34.70
2019-04-20T09:46:49.792Z,33.80
2019-04-20T09:47:51.335Z,34.10
2019-04-20T09:48:57.376Z,33.00
2019-04-20T09:50:04.786Z,32.80
2019-04-20T09:51:16.837Z,32.50
2019-04-20T09:52:13.286Z,32.70
2019-04-20T09:53:17.065Z,32.70
2019-04-20T09:54:25.809Z,32.60
2019-04-20T09:55:22.089Z,32.50
2019-04-20T09:56:29.705Z,31.50
2019-04-20T09:57:33.499Z,32.10
2019-04-20T09:58:27.105Z,31.60
2019-04-20T09:59:37.189Z,31.70
2019-04-20T10:00:45.049Z,32.00
2019-04-20T10:01:39.339Z,31.60
2019-04-20T10:02:36.349Z,31.60
2019-04-20T10:03:36.662Z,31.60
2019-04-20T10:04:37.988Z,31.60
2019-04-20T10:05:39.700Z,31.30
2019-04-20T10:06:41.460Z,31.70
2019-04-20T10:07:43.854Z,31.00
2019-04-20T10:08:50.799Z,31.80
2019-04-20T10:09:49.051Z,31.70
2019-04-20T10:10:52.923Z,31.80
2019-04-20T10:11:55.388Z,31.30
2019-04-20T10:12:56.544Z,31.70
2019-04-20T10:13:58.568Z,31.50
2019-04-20T10:15:05.130Z,31.30
2019-04-20T10:16:03.842Z,32.00
2019-04-20T10:17:05.721Z,31.70
2019-04-20T10:18:07.915Z,31.00
2019-04-20T10:19:11.769Z,30.70
2019-04-20T10:20:20.929Z,30.20
2019-04-20T10:21:15.828Z,30.20
2019-04-20T10:22:18.330Z,30.70
2019-04-20T10:23:20.740Z,30.70
2019-04-20T10:24:21.891Z,30.70
2019-04-20T10:25:24.481Z,30.20
2019-04-20T10:26:26.897Z,30.40
2019-04-20T10:27:28.509Z,31.00
2019-04-20T10:28:29.777Z,30.40
2019-04-20T10:29:31.304Z,30.70
2019-04-20T10:30:32.561Z,29.70
2019-04-20T10:31:35.753Z,28.60
2019-04-20T10:32:40.358Z,29.30
2019-04-20T10:33:39.656Z,29.20
2019-04-20T10:34:40.999Z,29.70
2019-04-20T10:35:43.491Z,29.70
2019-04-20T10:36:47.899Z,29.70
2019-04-20T10:37:53.728Z,28.70
2019-04-20T10:38:54.848Z,29.00
2019-04-20T10:39:56.529Z,28.10
2019-04-20T10:41:08.307Z,27.80
2019-04-20T10:42:03.847Z,28.50
2019-04-20T10:43:04.561Z,28.20
2019-04-20T10:44:07.183Z,28.30
2019-04-20T10:45:08.749Z,28.80
2019-04-20T10:46:11.093Z,28.50
2019-04-20T10:47:12.321Z,28.60
2019-04-20T10:48:13.431Z,27.50
2019-04-20T10:49:15.438Z,27.30
2019-04-20T10:50:16.914Z,27.40
2019-04-20T10:51:18.089Z,27.10
2019-04-20T10:52:19.999Z,27.10
2019-04-20T10:53:21.834Z,27.30
2019-04-20T10:54:22.933Z,27.60
2019-04-20T10:55:25.143Z,27.80
2019-04-20T10:56:27.323Z,27.70
2019-04-20T10:57:28.696Z,27.80
2019-04-20T10:58:29.719Z,27.80
2019-04-20T10:59:31.833Z,27.30
2019-04-20T11:00:39.727Z,27.20
2019-04-20T11:01:40.834Z,28.10
2019-04-20T11:02:45.475Z,27.60
2019-04-20T11:03:45.003Z,27.80
2019-04-20T11:04:46.446Z,27.20
2019-04-20T11:05:48.915Z,27.30
2019-04-20T11:06:50.409Z,27.00
2019-04-20T11:07:52.619Z,26.40
2019-04-20T11:08:53.705Z,25.90
2019-04-20T11:10:04.367Z,26.30
2019-04-20T11:11:07.317Z,26.80
2019-04-20T11:12:02.084Z,26.50
2019-04-20T11:13:03.412Z,26.40
2019-04-20T11:14:11.113Z,26.20
2019-04-20T11:15:08.388Z,25.40
2019-04-20T11:16:10.726Z,26.00
2019-04-20T11:17:12.277Z,26.00
2019-04-20T11:18:13.455Z,26.50
2019-04-20T11:19:15.680Z,26.10
2019-04-20T11:20:17.244Z,25.80
2019-04-20T11:21:19.652Z,25.50
2019-04-20T11:22:22.133Z,26.20
2019-04-20T11:23:24.433Z,25.60
2019-04-20T11:24:26.088Z,24.70
2019-04-20T11:25:28.350Z,25.10
2019-04-20T11:26:29.477Z,25.00
2019-04-20T11:27:30.512Z,26.40
2019-04-20T11:28:32.355Z,25.60
2019-04-20T11:29:33.937Z,25.60
2019-04-20T11:30:36.212Z,24.90
2019-04-20T11:31:42.243Z,25.60
2019-04-20T11:32:40.348Z,25.60
2019-04-20T11:33:42.518Z,25.20
2019-04-20T11:34:45.304Z,25.50
2019-04-20T11:35:46.959Z,25.00
2019-04-20T11:36:49.261Z,25.10
2019-04-20T11:37:51.252Z,24.10
2019-04-20T11:38:53.056Z,23.80
2019-04-20T11:39:55.306Z,24.40
2019-04-20T11:41:07.382Z,24.20
2019-04-20T11:41:59.573Z,23.70
2019-04-20T11:43:01.668Z,23.60
2019-04-20T11:44:03.117Z,23.90
2019-04-20T11:45:06.787Z,23.40
2019-04-20T11:46:09.002Z,23.90
2019-04-20T11:47:10.577Z,23.90
2019-04-20T11:48:11.802Z,23.60
2019-04-20T11:49:13.191Z,23.20
2019-04-20T11:50:15.612Z,23.50
2019-04-20T11:51:17.104Z,23.70
2019-04-20T11:52:20.267Z,22.70
2019-04-20T11:53:21.519Z,23.00
2019-04-20T11:54:22.661Z,22.80
2019-04-20T11:55:24.360Z,23.30
2019-04-20T11:56:31.466Z,23.60
2019-04-20T11:57:29.278Z,23.90
2019-04-20T11:58:30.553Z,23.90
2019-04-20T11:59:32.725Z,24.00
2019-04-20T12:00:56.054Z,24.10
2019-04-20T12:02:14.752Z,23.80
2019-04-20T12:03:24.772Z,24.00
2019-04-20T12:04:40.408Z,23.30
2019-04-20T12:05:38.122Z,23.30
2019-04-20T12:06:34.819Z,23.60
2019-04-20T12:07:49.065Z,23.70
2019-04-20T12:08:50.217Z,23.50
2019-04-20T12:09:51.486Z,23.10
2019-04-20T12:10:56.517Z,23.20
2019-04-20T12:12:06.742Z,23.40
2019-04-20T12:12:59.637Z,23.50
2019-04-20T12:14:00.847Z,23.40
2019-04-20T12:15:01.959Z,23.50
2019-04-20T12:16:03.595Z,23.80
2019-04-20T12:17:05.875Z,23.30
2019-04-20T12:18:07.513Z,23.60
2019-04-20T12:19:08.722Z,23.10
2019-04-20T12:20:10.193Z,21.20
2019-04-20T12:21:12.748Z,21.90
2019-04-20T12:22:14.037Z,22.50
2019-04-20T12:23:16.085Z,22.60
2019-04-20T12:24:18.405Z,22.40
2019-04-20T12:25:20.464Z,22.60
2019-04-20T12:26:22.697Z,22.80
2019-04-20T12:27:24.876Z,22.80
2019-04-20T12:28:27.423Z,22.60
2019-04-20T12:29:29.913Z,21.70
2019-04-20T12:30:31.116Z,22.10
2019-04-20T12:31:33.446Z,22.20
2019-04-20T12:32:42.286Z,21.70
2019-04-20T12:33:38.120Z,21.30
2019-04-20T12:34:39.340Z,21.50
2019-04-20T12:35:40.436Z,21.60
2019-04-20T12:36:42.702Z,21.50
2019-04-20T12:37:45.061Z,21.40
2019-04-20T12:38:46.402Z,21.90
2019-04-20T12:39:47.432Z,22.00
2019-04-20T12:40:48.590Z,22.10
2019-04-20T12:41:53.664Z,21.90
2019-04-20T12:42:53.041Z,21.80
2019-04-20T12:43:54.135Z,21.20
2019-04-20T12:44:55.638Z,21.40
2019-04-20T12:45:57.994Z,21.30
2019-04-20T12:46:59.666Z,21.50
2019-04-20T12:48:01.769Z,20.90
2019-04-20T12:49:03.052Z,21.20
2019-04-20T12:50:07.582Z,21.00
2019-04-20T12:51:08.679Z,20.80
2019-04-20T12:52:10.276Z,21.00
2019-04-20T12:53:12.731Z,21.40
2019-04-20T12:54:14.503Z,21.10
2019-04-20T12:55:16.880Z,20.70
2019-04-20T12:56:17.901Z,21.10
2019-04-20T12:57:18.908Z,21.10
2019-04-20T12:58:20.856Z,20.40
2019-04-20T12:59:23.346Z,19.80
2019-04-20T13:00:43.725Z,20.20
2019-04-20T13:01:44.917Z,19.90
2019-04-20T13:02:47.372Z,20.00
2019-04-20T13:03:49.837Z,19.80
2019-04-20T13:04:53.288Z,19.50
2019-04-20T13:05:54.454Z,20.00
2019-04-20T13:06:57.559Z,20.50
2019-04-20T13:08:01.026Z,19.90
2019-04-20T13:09:08.306Z,19.70
2019-04-20T13:10:11.475Z,19.10
2019-04-20T13:11:14.589Z,19.20
2019-04-20T13:12:17.550Z,19.60
2019-04-20T13:13:26.420Z,19.70
2019-04-20T13:15:00.273Z,19.60
2019-04-20T13:16:16.340Z,19.70
2019-04-20T13:17:17.496Z,19.00
2019-04-20T13:18:23.326Z,19.40
2019-04-20T13:19:24.520Z,19.80
2019-04-20T13:20:25.872Z,19.00
2019-04-20T13:21:27.168Z,19.20
2019-04-20T13:22:28.736Z,18.70
2019-04-20T13:23:31.031Z,19.30
2019-04-20T13:24:32.400Z,19.10
2019-04-20T13:25:34.723Z,19.20
2019-04-20T13:26:37.265Z,18.40
2019-04-20T13:27:38.931Z,18.60
2019-04-20T13:28:41.221Z,18.20
2019-04-20T13:29:43.091Z,18.60
2019-04-20T13:30:45.904Z,18.70
2019-04-20T13:31:48.766Z,18.40
2019-04-20T13:32:50.012Z,18.10
2019-04-20T13:33:51.617Z,17.60
2019-04-20T13:34:53.837Z,17.90
2019-04-20T13:35:56.411Z,18.00
2019-04-20T13:36:58.188Z,18.60
2019-04-20T13:38:00.289Z,18.20
2019-04-20T13:39:01.778Z,17.90
2019-04-20T13:40:04.946Z,18.10
2019-04-20T13:41:06.286Z,17.70
2019-04-20T13:42:14.005Z,17.70
2019-04-20T13:43:10.332Z,17.90
2019-04-20T13:44:11.612Z,16.60
2019-04-20T13:45:13.068Z,16.00
2019-04-20T13:46:15.104Z,16.60
2019-04-20T13:47:17.216Z,16.90
2019-04-20T13:48:19.270Z,16.30
2019-04-20T13:49:20.834Z,16.90
2019-04-20T13:50:22.302Z,17.20
2019-04-20T13:51:23.383Z,17.00
2019-04-20T13:52:24.748Z,17.30
2019-04-20T13:53:25.905Z,17.50
2019-04-20T13:54:28.587Z,17.50
2019-04-20T13:55:31.853Z,17.10
2019-04-20T13:56:34.022Z,16.90
2019-04-20T13:57:40.780Z,16.90